Saturday, February 24, 2018, 3:07 AM EST
Back to Local

KNEL, Lakehurst Naval Air Station

Location: Lakehurst, NJ, United States Lat: 40.033
Local Time: 3:07 AM EST ( 8:07 GMT) Lon: -74.317
Time Zone: US/Eastern Elev: 101 ft

Show me the last for .
Show Coded

Time T Td Feel RH Dir Speed Gust Alt SLP Vis Weather Sky Remarks
2018-02-24 03:00 45 44 41 96 280° 8 - 30.17 30.16 0 BR OVC004 None
2018-02-24 02:00 45 44 39 96 270° 12 - 30.17 30.17 0 BR OVC003 None
2018-02-24 01:00 44 44 40 100 270° 8 - 30.18 30.18 0 BR OVC003 None
2018-02-24 00:00 43 43 39 100 260° 7 - 30.18 30.18 0 BR OVC002 None
2018-02-23 23:00 42 42 38 100 260° 6 - 30.22 30.21 0 BR OVC003 None
2018-02-23 22:00 41 41 38 100 240° 5 - 30.23 30.23 0 BR OVC003 None
2018-02-23 21:00 41 41 38 100 290° 5 - 30.27 30.26 0 BR OVC002 None
2018-02-23 20:00 41 41 - 100 - Calm - 30.27 30.27 0 BR OVC003 None
2018-02-23 19:00 41 41 - 100 - Calm - 30.32 30.31 0 BR BKN004 OVC009 None
2018-02-23 18:57 41 41 - 100 - Calm - 30.32 - 0 BR BKN004 OVC009 None
2018-02-23 18:33 42 41 - 95 - Calm - 30.34 - 0 BR BKN005 OVC009 None
2018-02-23 18:11 41 41 - 100 - Calm - 30.35 - 0 BR OVC004 None
2018-02-23 18:00 41 41 39 100 330° 3 - 30.34 30.34 0 BR OVC005 None
2018-02-23 17:43 42 41 - 95 - Calm - 30.34 - 0 BR BKN006 OVC009 None
2018-02-23 17:17 42 41 38 95 70° 7 - 30.34 - 0 BR OVC004 None
2018-02-23 17:06 42 42 38 100 60° 6 - 30.35 30.34 0 BR OVC005 None
2018-02-23 17:00 43 41 39 93 70° 6 - 30.35 - 0 BR OVC005 None
2018-02-23 16:16 42 41 38 95 90° 7 - 30.36 - 1 BR OVC005 None
2018-02-23 16:06 42 42 37 100 100° 8 - 30.36 30.36 1 BR OVC004 None
2018-02-23 16:00 43 43 38 100 100° 8 - 30.37 - 1 BR OVC004 None
2018-02-23 15:00 42 41 38 95 90° 7 - 30.40 30.40 1 BR BKN005 OVC009 None
2018-02-23 14:00 42 41 38 95 70° 7 - 30.45 30.45 1 BR OVC006 None
2018-02-23 11:00 40 38 33 92 80° 12 - 30.55 30.55 6 BR OVC006 None
2018-02-23 10:44 39 38 32 95 70° 12 - 30.56 - 4 -RA BR OVC006 None
2018-02-23 10:32 39 38 33 95 80° 9 - 30.57 - 2 RA BR OVC007 None
2018-02-23 10:00 39 37 32 92 80° 10 - 30.59 30.58 5 -RA BR OVC006 None
2018-02-23 09:00 38 37 31 96 70° 9 - 30.60 30.60 6 BR OVC008 None
2018-02-23 08:00 38 36 31 92 60° 9 - 30.61 30.60 8 OVC007 None
2018-02-23 07:06 38 36 31 92 70° 9 - 30.59 30.59 10 OVC009 6-hr Min Temp (7am): 37.0°F
6-hr Max Temp (7am): 37.9°F
2018-02-23 06:00 38 34 30 85 80° 12 - 30.59 30.59 10 -RA OVC011 None
2018-02-23 04:00 38 34 27 85 60° 12 22 30.62 30.61 10 BKN015 OVC030 None
2018-02-23 03:51 38 34 31 85 60° 9 - 30.62 - 10 BKN015 OVC030 None
2018-02-23 03:26 38 34 31 85 80° 10 - 30.61 - 10 SCT015 OVC030 None

Support USWX by starting your Amazon purchase here.